Time;durP1;ratioP1;P1;durP2;ratioP2;P2;SDS_P1;SDS_P2;PMS_P1;PMS_P2;Temp;Humidity;BMP_temperature;BMP_pressure;BME280_temperature;BME280_humidity;BME280_pressure;Samples;Min_cycle;Max_cycle;Signal;HPM_P1;HPM_P2
2022/07/02 00:01:57;;;;;;;7.25;6.53;;;13.20;99.90;;;;;;5077475;28;20505;-54
2022/07/02 00:04:30;;;;;;;6.32;5.72;;;13.10;99.90;;;;;;5071139;28;20386;-55
2022/07/02 00:06:56;;;;;;;6.82;6.00;;;13.10;99.90;;;;;;5077781;28;20017;-53
2022/07/02 00:09:21;;;;;;;7.55;6.10;;;13.10;99.90;;;;;;5084146;28;20047;-53
2022/07/02 00:11:49;;;;;;;7.68;6.10;;;13.10;99.90;;;;;;5079248;28;20037;-51
2022/07/02 00:14:15;;;;;;;8.55;6.55;;;13.10;99.90;;;;;;5077583;28;20125;-50
2022/07/02 00:16:45;;;;;;;7.93;6.65;;;13.00;99.90;;;;;;5065812;28;20028;-53
2022/07/02 00:19:13;;;;;;;6.53;5.60;;;13.00;99.90;;;;;;5080593;28;20012;-49
2022/07/02 00:21:39;;;;;;;7.05;6.25;;;13.00;99.90;;;;;;5081607;28;20490;-50
2022/07/02 00:24:07;;;;;;;6.40;5.80;;;13.00;99.90;;;;;;5078523;28;20028;-49
2022/07/02 00:26:36;;;;;;;8.57;6.57;;;12.90;99.90;;;;;;5065969;28;20039;-52
2022/07/02 00:29:16;;;;;;;8.40;6.32;;;12.90;99.90;;;;;;5074231;28;20044;-54
2022/07/02 00:31:43;;;;;;;9.80;7.03;;;12.90;99.90;;;;;;5080540;28;20023;-52
2022/07/02 00:34:08;;;;;;;7.78;6.97;;;12.90;99.90;;;;;;5080451;28;20032;-52
2022/07/02 00:36:34;;;;;;;6.80;6.07;;;12.90;99.90;;;;;;5078596;28;20406;-53
2022/07/02 00:39:00;;;;;;;9.27;7.47;;;12.90;99.90;;;;;;5057444;28;20510;-53
2022/07/02 00:41:27;;;;;;;7.85;7.10;;;12.80;99.90;;;;;;5075877;28;20021;-49
2022/07/02 00:43:54;;;;;;;8.05;7.25;;;12.80;99.90;;;;;;5061417;28;20440;-54
2022/07/02 00:46:21;;;;;;;7.82;6.30;;;12.80;99.90;;;;;;5075661;28;20102;-51
2022/07/02 00:48:46;;;;;;;8.10;6.93;;;12.80;99.90;;;;;;5081059;28;20074;-50
2022/07/02 00:51:12;;;;;;;7.25;6.55;;;12.70;99.90;;;;;;5064800;28;20460;-50
2022/07/02 00:53:38;;;;;;;7.03;6.40;;;12.70;99.90;;;;;;5079422;28;20032;-53
2022/07/02 00:56:04;;;;;;;7.30;6.45;;;12.70;99.90;;;;;;5067490;28;20044;-57
2022/07/02 00:58:31;;;;;;;8.70;7.43;;;12.70;99.90;;;;;;5076829;28;20048;-50
2022/07/02 01:00:58;;;;;;;8.45;7.63;;;12.70;99.90;;;;;;5074819;28;20595;-53
2022/07/02 01:03:25;;;;;;;7.45;6.75;;;12.60;99.90;;;;;;5078211;28;20032;-51
2022/07/02 01:05:52;;;;;;;7.85;7.05;;;12.60;99.90;;;;;;5081096;28;20115;-53
2022/07/02 01:11:05;;;;;;;8.45;7.65;;;12.60;99.90;;;;;;5073169;28;20082;-52
2022/07/02 01:13:32;;;;;;;7.72;6.78;;;12.50;99.90;;;;;;5078383;28;20028;-51
2022/07/02 01:15:59;;;;;;;8.70;7.90;;;12.50;99.90;;;;;;5081968;28;20029;-48
2022/07/02 01:18:24;;;;;;;9.75;7.45;;;12.50;99.90;;;;;;5056240;28;20054;-53
2022/07/02 01:20:50;;;;;;;8.43;7.45;;;12.50;99.90;;;;;;5068635;28;20033;-49
2022/07/02 01:23:15;;;;;;;9.55;7.88;;;12.40;99.90;;;;;;5084000;28;20028;-54
2022/07/02 01:25:51;;;;;;;10.27;8.20;;;12.40;99.90;;;;;;5068088;28;20032;-51
2022/07/02 01:28:18;;;;;;;9.95;7.85;;;12.40;99.90;;;;;;5058997;28;20017;-49
2022/07/02 01:30:44;;;;;;;7.88;7.05;;;12.40;99.90;;;;;;5074872;28;20036;-49
2022/07/02 01:33:10;;;;;;;7.90;7.15;;;12.40;99.90;;;;;;5051726;28;20563;-51
2022/07/02 01:35:35;;;;;;;9.35;7.28;;;12.30;99.90;;;;;;5057560;28;20031;-49
2022/07/02 01:38:01;;;;;;;9.18;8.00;;;12.30;99.90;;;;;;5047719;28;20027;-52
2022/07/02 01:40:26;;;;;;;10.02;7.25;;;12.30;99.90;;;;;;5077005;28;20478;-50
2022/07/02 01:42:52;;;;;;;7.95;7.20;;;12.30;99.90;;;;;;5045493;28;20040;-58
2022/07/02 01:45:17;;;;;;;8.30;7.22;;;12.30;99.90;;;;;;5072882;28;20048;-52
2022/07/02 01:47:43;;;;;;;7.32;6.53;;;12.30;99.90;;;;;;5050539;28;20025;-48
2022/07/02 01:50:09;;;;;;;8.98;7.05;;;12.20;99.90;;;;;;5081649;28;20040;-52
2022/07/02 01:52:34;;;;;;;8.32;7.13;;;12.30;99.90;;;;;;5079941;28;20036;-54
2022/07/02 01:55:00;;;;;;;7.22;6.53;;;12.20;99.90;;;;;;5080512;28;20109;-49
2022/07/02 01:57:29;;;;;;;7.78;7.07;;;12.20;99.90;;;;;;5057518;28;20115;-52
2022/07/02 01:59:55;;;;;;;7.38;6.63;;;12.20;99.90;;;;;;5074358;28;20024;-54
2022/07/02 02:02:21;;;;;;;6.70;5.95;;;12.20;99.90;;;;;;5049486;28;20086;-53
2022/07/02 02:04:46;;;;;;;7.28;6.57;;;12.10;99.90;;;;;;5066498;28;20040;-50
2022/07/02 02:07:12;;;;;;;7.68;6.82;;;12.10;99.90;;;;;;5067137;28;20160;-50
2022/07/02 02:09:38;;;;;;;5.90;5.30;;;12.10;99.90;;;;;;5049864;28;20041;-52
2022/07/02 02:12:04;;;;;;;9.25;6.22;;;12.10;99.90;;;;;;5048094;28;20468;-52
2022/07/02 02:14:30;;;;;;;6.65;5.85;;;12.10;99.90;;;;;;5043780;28;20029;-49
2022/07/02 02:16:55;;;;;;;10.10;6.35;;;12.00;99.90;;;;;;5067311;28;20020;-53
2022/07/02 02:19:21;;;;;;;6.97;6.30;;;12.00;99.90;;;;;;5069245;28;20027;-50
2022/07/02 02:21:46;;;;;;;9.55;6.80;;;12.00;99.90;;;;;;5073304;28;20025;-51
2022/07/02 02:24:13;;;;;;;6.93;6.22;;;12.00;99.90;;;;;;5069211;28;20033;-50
2022/07/02 02:26:38;;;;;;;10.32;6.57;;;12.00;99.90;;;;;;5055739;28;20024;-50
2022/07/02 02:29:04;;;;;;;8.07;6.68;;;11.90;99.90;;;;;;5049338;28;20082;-52
2022/07/02 02:31:29;;;;;;;7.07;6.30;;;12.00;99.90;;;;;;5073546;28;20028;-52
2022/07/02 02:33:55;;;;;;;7.35;6.55;;;11.90;99.90;;;;;;5071819;28;20082;-48
2022/07/02 02:36:21;;;;;;;7.82;6.45;;;11.90;99.90;;;;;;5050023;28;20028;-48
2022/07/02 02:38:46;;;;;;;11.57;6.78;;;11.90;99.90;;;;;;5073489;28;20025;-47
2022/07/02 02:41:12;;;;;;;6.88;6.05;;;11.90;99.90;;;;;;5066863;28;20051;-53
2022/07/02 02:43:38;;;;;;;7.32;6.60;;;11.90;99.90;;;;;;5041250;28;20494;-50
2022/07/02 02:46:06;;;;;;;7.60;6.90;;;11.90;99.90;;;;;;5068086;28;20031;-51
2022/07/02 02:48:33;;;;;;;9.05;6.57;;;11.90;99.90;;;;;;5075388;28;20025;-50
2022/07/02 02:50:58;;;;;;;7.18;6.28;;;11.90;99.90;;;;;;5071818;28;20063;-52
2022/07/02 02:53:24;;;;;;;7.80;6.70;;;11.90;99.90;;;;;;5063264;28;20047;-51
2022/07/02 02:55:50;;;;;;;7.25;6.40;;;11.90;99.90;;;;;;5055188;28;20035;-51
2022/07/02 02:58:16;;;;;;;7.22;6.53;;;11.90;99.90;;;;;;5070652;28;20017;-49
2022/07/02 03:00:42;;;;;;;7.30;5.80;;;11.90;99.90;;;;;;5064235;28;20399;-50
2022/07/02 03:03:08;;;;;;;7.93;7.13;;;11.90;99.90;;;;;;5065810;28;20540;-48
2022/07/02 03:05:33;;;;;;;7.95;6.65;;;11.80;99.90;;;;;;5062896;28;20036;-48
2022/07/02 03:07:59;;;;;;;7.45;6.70;;;11.80;99.90;;;;;;5063984;28;20074;-50
2022/07/02 03:10:24;;;;;;;8.13;7.10;;;11.80;99.90;;;;;;5067122;28;20020;-49
2022/07/02 03:12:50;;;;;;;7.75;6.95;;;11.80;99.90;;;;;;5063101;28;20028;-51
2022/07/02 03:15:16;;;;;;;7.50;6.40;;;11.80;99.90;;;;;;5047949;28;20024;-50
2022/07/02 03:17:41;;;;;;;7.07;6.25;;;11.80;99.90;;;;;;5050776;28;20021;-52
2022/07/02 03:20:08;;;;;;;8.25;6.50;;;11.80;99.90;;;;;;5071389;28;20078;-50
2022/07/02 03:22:34;;;;;;;7.18;6.47;;;11.70;99.90;;;;;;5067852;28;20051;-50
2022/07/02 03:24:59;;;;;;;8.27;6.80;;;11.70;99.90;;;;;;5067582;28;20025;-50
2022/07/02 03:27:25;;;;;;;9.40;6.72;;;11.70;99.90;;;;;;5069214;28;20051;-48
2022/07/02 03:29:51;;;;;;;7.95;6.50;;;11.70;99.90;;;;;;5048211;28;20044;-51
2022/07/02 03:32:17;;;;;;;6.72;6.07;;;11.80;99.90;;;;;;5067988;28;20025;-51
2022/07/02 03:34:43;;;;;;;7.85;6.93;;;11.70;99.90;;;;;;5071141;28;20028;-48
2022/07/02 03:37:08;;;;;;;7.80;6.78;;;11.70;99.90;;;;;;5072694;28;20040;-50
2022/07/02 03:39:34;;;;;;;6.25;5.72;;;11.70;99.90;;;;;;5068947;28;20029;-49
2022/07/02 03:41:59;;;;;;;11.27;6.47;;;11.70;99.90;;;;;;5062945;28;20428;-51
2022/07/02 03:44:25;;;;;;;6.18;5.57;;;11.70;99.90;;;;;;5075969;28;20463;-50
2022/07/02 03:46:51;;;;;;;6.50;5.90;;;11.70;99.90;;;;;;5038339;28;20036;-48
2022/07/02 03:49:16;;;;;;;6.90;6.20;;;11.70;99.90;;;;;;5077281;28;20443;-52
2022/07/02 03:51:42;;;;;;;8.95;6.57;;;11.70;99.90;;;;;;5068433;28;20033;-47
2022/07/02 03:54:08;;;;;;;6.13;5.63;;;11.70;99.90;;;;;;5080438;28;20042;-50
2022/07/02 03:56:33;;;;;;;6.53;5.93;;;11.70;99.90;;;;;;5050919;28;20112;-49
2022/07/02 03:58:59;;;;;;;6.22;5.72;;;11.70;99.90;;;;;;5072379;28;20024;-48
2022/07/02 04:01:25;;;;;;;6.63;6.05;;;11.70;99.90;;;;;;5060001;28;20017;-49
2022/07/02 04:03:50;;;;;;;8.80;7.05;;;11.80;99.90;;;;;;5047602;28;20029;-51
2022/07/02 04:06:16;;;;;;;10.45;7.63;;;11.80;99.90;;;;;;5063219;28;20032;-48
2022/07/02 04:08:42;;;;;;;7.32;6.65;;;11.80;99.90;;;;;;5061676;28;20032;-48
2022/07/02 04:11:07;;;;;;;8.55;7.55;;;11.80;99.90;;;;;;5063176;28;20036;-52
2022/07/02 04:13:33;;;;;;;9.43;7.10;;;11.80;99.90;;;;;;5067691;28;20073;-49
2022/07/02 04:15:58;;;;;;;8.75;6.40;;;11.80;99.90;;;;;;5067818;28;20134;-48
2022/07/02 04:18:24;;;;;;;8.32;5.78;;;11.80;99.90;;;;;;5067206;28;20016;-52
2022/07/02 04:20:50;;;;;;;8.15;6.00;;;11.80;99.90;;;;;;5061140;28;20020;-50
2022/07/02 04:23:16;;;;;;;6.47;5.85;;;11.80;99.90;;;;;;5038767;28;20371;-49
2022/07/02 04:25:41;;;;;;;7.18;6.45;;;11.90;99.90;;;;;;5065252;28;20041;-49
2022/07/02 04:28:08;;;;;;;6.80;6.13;;;11.90;99.90;;;;;;5067248;28;20039;-47
2022/07/02 04:30:34;;;;;;;8.65;6.00;;;11.90;99.90;;;;;;5065182;28;20413;-52
2022/07/02 04:32:59;;;;;;;7.53;6.75;;;11.90;99.90;;;;;;5066594;28;20215;-48
2022/07/02 04:35:25;;;;;;;6.55;5.95;;;12.00;99.90;;;;;;5063691;28;20094;-47
2022/07/02 04:37:50;;;;;;;6.45;5.82;;;12.00;99.90;;;;;;5047810;28;20032;-50
2022/07/02 04:40:16;;;;;;;6.63;5.97;;;12.00;99.90;;;;;;5067164;28;20028;-47
2022/07/02 04:42:41;;;;;;;7.25;6.55;;;12.00;99.90;;;;;;5043694;28;20048;-50
2022/07/02 04:45:08;;;;;;;6.85;6.32;;;12.10;99.90;;;;;;5049011;28;20036;-52
2022/07/02 04:47:33;;;;;;;7.03;6.28;;;12.10;99.90;;;;;;5068401;28;20053;-48
2022/07/02 04:49:59;;;;;;;8.25;5.93;;;12.10;99.90;;;;;;5045387;28;20479;-50
2022/07/02 04:52:24;;;;;;;7.18;6.53;;;12.20;99.90;;;;;;5067044;28;20029;-49
2022/07/02 04:54:50;;;;;;;9.85;6.80;;;12.20;99.90;;;;;;5079483;28;20086;-53
2022/07/02 04:57:16;;;;;;;8.05;7.20;;;12.30;99.90;;;;;;5071468;28;20103;-51
2022/07/02 04:59:44;;;;;;;7.80;7.10;;;12.30;99.90;;;;;;5068965;28;20099;-49
2022/07/02 05:02:11;;;;;;;9.48;7.05;;;12.40;99.90;;;;;;5068209;28;20021;-53
2022/07/02 05:04:36;;;;;;;9.32;8.30;;;12.40;99.90;;;;;;5065938;28;20013;-51
2022/07/02 05:07:02;;;;;;;9.70;7.53;;;12.50;99.90;;;;;;5069194;28;20567;-51
2022/07/02 05:09:28;;;;;;;9.13;7.88;;;12.50;99.90;;;;;;5051112;28;20111;-53
2022/07/02 05:11:53;;;;;;;8.15;7.35;;;12.60;99.90;;;;;;5065396;28;20016;-52
2022/07/02 05:14:19;;;;;;;8.90;7.90;;;12.70;99.90;;;;;;5067449;28;20052;-51
2022/07/02 05:16:44;;;;;;;8.90;7.85;;;12.70;99.90;;;;;;5044710;28;20526;-52
2022/07/02 05:19:10;;;;;;;8.63;7.43;;;12.80;99.90;;;;;;5067360;28;20122;-49
2022/07/02 05:21:37;;;;;;;7.93;7.13;;;12.90;99.90;;;;;;5069159;28;20045;-52
2022/07/02 05:24:03;;;;;;;11.48;7.82;;;12.90;99.90;;;;;;5067178;28;20059;-51
2022/07/02 05:26:29;;;;;;;8.52;7.82;;;13.00;99.90;;;;;;5073229;28;20347;-52
2022/07/02 05:28:54;;;;;;;9.30;8.32;;;13.10;99.90;;;;;;5044335;28;20024;-52
2022/07/02 05:31:20;;;;;;;9.55;7.85;;;13.10;99.90;;;;;;5068068;28;20024;-52
2022/07/02 05:33:46;;;;;;;8.13;7.43;;;13.20;99.90;;;;;;5069881;28;20048;-52
2022/07/02 05:36:11;;;;;;;11.73;7.38;;;13.30;99.90;;;;;;5090272;22;20204;-50
2022/07/02 05:38:37;;;;;;;8.52;7.47;;;13.30;99.90;;;;;;5095882;28;20040;-48
2022/07/02 05:41:02;;;;;;;7.40;6.70;;;13.40;99.90;;;;;;5091344;28;20042;-53
2022/07/02 05:43:28;;;;;;;9.00;7.25;;;13.50;99.90;;;;;;5094957;28;20020;-53
2022/07/02 05:45:54;;;;;;;8.02;6.88;;;13.60;99.90;;;;;;5088123;28;20054;-50
2022/07/02 05:48:19;;;;;;;8.85;5.97;;;13.70;99.90;;;;;;5106222;28;20028;-49
2022/07/02 05:50:45;;;;;;;6.55;5.95;;;13.80;99.90;;;;;;5110611;28;20100;-51
2022/07/02 05:53:11;;;;;;;6.85;5.78;;;14.00;99.90;;;;;;5106925;28;20028;-47
2022/07/02 05:55:36;;;;;;;7.05;5.40;;;14.10;99.90;;;;;;5108339;28;20032;-50
2022/07/02 05:58:02;;;;;;;6.05;5.45;;;14.30;99.90;;;;;;5106077;28;20095;-51
2022/07/02 06:00:27;;;;;;;5.50;5.00;;;14.50;99.90;;;;;;5108641;28;20386;-49
2022/07/02 06:02:53;;;;;;;5.60;5.03;;;14.60;99.90;;;;;;5086456;28;20024;-47
2022/07/02 06:08:03;;;;;;;7.20;4.47;;;14.90;99.90;;;;;;5105942;28;20088;-50
2022/07/02 06:10:29;;;;;;;4.72;4.22;;;15.00;99.90;;;;;;5104445;28;20109;-45
2022/07/02 06:12:54;;;;;;;8.10;3.70;;;15.10;99.90;;;;;;5097220;28;20088;-46
2022/07/02 06:15:20;;;;;;;4.50;3.53;;;15.30;99.90;;;;;;5082620;28;20055;-46
2022/07/02 06:17:46;;;;;;;6.30;3.30;;;15.40;99.90;;;;;;5096008;28;20021;-46
2022/07/02 06:20:13;;;;;;;4.10;2.90;;;15.60;99.90;;;;;;5102346;28;20024;-46
2022/07/02 06:22:39;;;;;;;4.93;3.10;;;15.70;99.90;;;;;;5097649;28;20140;-47
2022/07/02 06:25:07;;;;;;;4.85;3.00;;;15.90;99.90;;;;;;5098976;28;20394;-47
2022/07/02 06:27:34;;;;;;;6.43;3.53;;;16.00;99.90;;;;;;5093430;28;20024;-46
2022/07/02 06:30:04;;;;;;;2.78;2.50;;;16.10;99.90;;;;;;5097343;28;20042;-47
2022/07/02 06:32:30;;;;;;;6.15;2.85;;;16.30;99.90;;;;;;5101521;28;20566;-48
2022/07/02 06:34:56;;;;;;;5.32;2.65;;;16.40;99.90;;;;;;5100525;28;20046;-46
2022/07/02 06:37:22;;;;;;;3.35;2.50;;;16.60;99.90;;;;;;5101690;28;20036;-46
2022/07/02 06:39:49;;;;;;;5.15;2.35;;;16.70;99.90;;;;;;5101226;28;20077;-46
2022/07/02 06:42:22;;;;;;;3.90;2.28;;;16.90;99.90;;;;;;5090868;28;20015;-47
2022/07/02 06:44:50;;;;;;;2.30;2.03;;;17.00;99.90;;;;;;5074403;28;20035;-46
2022/07/02 06:47:17;;;;;;;3.75;2.10;;;17.10;99.90;;;;;;5096857;28;20051;-46
2022/07/02 06:49:44;;;;;;;2.72;1.88;;;17.20;99.90;;;;;;5088415;28;20033;-46
2022/07/02 06:52:10;;;;;;;4.18;2.00;;;17.30;99.90;;;;;;5099922;28;20103;-46
2022/07/02 06:54:36;;;;;;;3.40;1.73;;;17.50;99.90;;;;;;5100461;28;20032;-47
2022/07/02 06:57:03;;;;;;;2.50;1.63;;;17.70;99.90;;;;;;5101412;28;20103;-46
2022/07/02 06:59:29;;;;;;;3.40;2.10;;;17.90;99.90;;;;;;5096732;28;20031;-45
2022/07/02 07:01:55;;;;;;;3.35;1.45;;;18.00;99.90;;;;;;5099936;28;20443;-46
2022/07/02 07:04:20;;;;;;;4.50;1.35;;;18.20;99.90;;;;;;5100479;28;20020;-45
2022/07/02 07:06:48;;;;;;;2.65;1.35;;;18.30;99.90;;;;;;5099203;28;20039;-46
2022/07/02 07:09:13;;;;;;;2.22;1.30;;;18.50;99.90;;;;;;5089283;28;20084;-46
2022/07/02 07:11:39;;;;;;;6.93;1.75;;;18.60;99.90;;;;;;5094674;28;20397;-48
2022/07/02 07:14:05;;;;;;;3.42;1.20;;;18.80;99.90;;;;;;5106352;28;20031;-46
2022/07/02 07:16:30;;;;;;;2.80;1.52;;;18.90;99.90;;;;;;5109179;28;20024;-45
2022/07/02 07:19:05;;;;;;;4.07;1.40;;;19.10;99.90;;;;;;5105409;28;20024;-45
2022/07/02 07:21:31;;;;;;;5.55;1.52;;;19.20;99.90;;;;;;5108037;28;20024;-46
2022/07/02 07:23:57;;;;;;;3.70;1.50;;;19.40;99.90;;;;;;5101443;28;20028;-47
2022/07/02 07:26:23;;;;;;;1.20;0.90;;;19.50;99.90;;;;;;5107298;28;20024;-51
2022/07/02 07:28:48;;;;;;;3.17;1.80;;;19.70;99.90;;;;;;5103545;28;20038;-48
2022/07/02 07:31:19;;;;;;;5.28;1.60;;;19.80;99.90;;;;;;5092792;28;20052;-45
2022/07/02 07:33:45;;;;;;;3.05;1.30;;;19.90;99.90;;;;;;5097173;28;20028;-46
2022/07/02 07:36:11;;;;;;;2.28;1.15;;;20.10;99.90;;;;;;5086292;28;20029;-49
2022/07/02 07:38:36;;;;;;;4.88;1.50;;;20.30;99.90;;;;;;5108466;28;20024;-46
2022/07/02 07:41:02;;;;;;;3.13;1.40;;;20.40;99.90;;;;;;5102467;28;20034;-48
2022/07/02 07:43:28;;;;;;;4.63;1.35;;;20.50;99.90;;;;;;5102502;28;20080;-49
2022/07/02 07:45:54;;;;;;;4.32;1.65;;;20.70;99.90;;;;;;5102722;28;20628;-50
2022/07/02 07:48:19;;;;;;;2.17;1.17;;;20.80;99.90;;;;;;5106324;28;20024;-51
2022/07/02 07:50:45;;;;;;;2.22;1.08;;;20.90;99.90;;;;;;5100108;28;20395;-47
2022/07/02 07:53:10;;;;;;;1.38;1.27;;;21.00;99.90;;;;;;5082644;28;20425;-52
2022/07/02 07:55:36;;;;;;;2.50;1.17;;;21.10;99.90;;;;;;5098881;28;20028;-46
2022/07/02 07:58:01;;;;;;;4.22;1.70;;;21.20;99.90;;;;;;5103007;28;20049;-49
2022/07/02 08:00:27;;;;;;;2.83;1.38;;;21.40;99.90;;;;;;5100988;28;20039;-51
2022/07/02 08:02:53;;;;;;;2.40;1.30;;;21.50;99.90;;;;;;5099199;28;20089;-51
2022/07/02 08:05:18;;;;;;;3.47;1.90;;;21.70;99.90;;;;;;5094519;28;20081;-48
2022/07/02 08:07:44;;;;;;;6.47;1.40;;;21.80;99.90;;;;;;5108146;28;20154;-48
2022/07/02 08:10:10;;;;;;;4.07;1.33;;;21.90;99.90;;;;;;5099998;28;20059;-47
2022/07/02 08:12:37;;;;;;;2.25;1.35;;;22.10;99.90;;;;;;5103320;28;20038;-50
2022/07/02 08:15:04;;;;;;;4.30;1.63;;;22.20;99.90;;;;;;5102567;28;20020;-47
2022/07/02 08:17:30;;;;;;;3.58;1.38;;;22.30;99.90;;;;;;5092837;28;20027;-45
2022/07/02 08:19:56;;;;;;;6.00;1.83;;;22.40;99.90;;;;;;5109286;28;20027;-46
2022/07/02 08:22:22;;;;;;;3.15;1.27;;;22.40;99.90;;;;;;5108016;28;20037;-50
2022/07/02 08:24:48;;;;;;;4.15;1.40;;;22.20;99.90;;;;;;5107989;28;20120;-45
2022/07/02 08:27:13;;;;;;;2.28;1.27;;;22.20;99.90;;;;;;5104057;28;20024;-48
2022/07/02 08:29:39;;;;;;;4.75;1.40;;;22.10;99.90;;;;;;5107234;28;20024;-48
2022/07/02 08:32:06;;;;;;;6.38;1.20;;;22.30;99.90;;;;;;5101708;28;20055;-48
2022/07/02 08:34:32;;;;;;;5.15;1.40;;;22.10;99.10;;;;;;5110407;28;20497;-50
2022/07/02 08:36:58;;;;;;;3.22;1.40;;;21.90;99.40;;;;;;5100961;28;20038;-51
2022/07/02 08:39:24;;;;;;;1.80;1.05;;;21.90;99.90;;;;;;5112406;28;20020;-51
2022/07/02 08:41:52;;;;;;;5.82;1.60;;;22.00;99.90;;;;;;5103156;28;20032;-52
2022/07/02 08:44:21;;;;;;;2.85;1.05;;;22.00;98.70;;;;;;5110590;28;20023;-52
2022/07/02 08:46:47;;;;;;;3.95;1.50;;;22.10;99.90;;;;;;5103478;28;20019;-52
2022/07/02 08:49:17;;;;;;;2.67;1.20;;;22.20;99.90;;;;;;5108890;28;20168;-51
2022/07/02 08:51:47;;;;;;;9.25;3.40;;;22.30;98.80;;;;;;5109706;28;20035;-54
2022/07/02 08:54:14;;;;;;;3.80;1.30;;;22.40;99.90;;;;;;5107117;28;20070;-50
2022/07/02 08:56:40;;;;;;;2.85;1.20;;;22.50;99.60;;;;;;5110487;28;20047;-52
2022/07/02 08:59:06;;;;;;;2.10;0.82;;;22.60;98.70;;;;;;5101768;28;20122;-55
2022/07/02 09:01:32;;;;;;;2.67;1.20;;;22.70;98.50;;;;;;5112030;28;20042;-50
2022/07/02 09:04:00;;;;;;;4.57;0.70;;;22.70;99.20;;;;;;5096721;28;20126;-50
2022/07/02 09:06:28;;;;;;;2.25;1.10;;;22.90;97.90;;;;;;5111368;28;20459;-51
2022/07/02 09:08:54;;;;;;;2.13;0.98;;;23.10;98.80;;;;;;5097791;28;20113;-51
2022/07/02 09:11:19;;;;;;;1.17;0.70;;;23.30;97.60;;;;;;5102667;28;20178;-50
2022/07/02 09:13:45;;;;;;;1.63;0.98;;;23.40;96.40;;;;;;5107615;28;20024;-52
2022/07/02 09:16:11;;;;;;;2.08;0.93;;;23.50;96.10;;;;;;5107245;28;20404;-48
2022/07/02 09:18:37;;;;;;;1.73;0.75;;;23.50;96.80;;;;;;5089888;28;20022;-50
2022/07/02 09:21:03;;;;;;;3.65;1.00;;;23.50;96.10;;;;;;5105584;28;20056;-49
2022/07/02 09:23:29;;;;;;;2.13;0.88;;;23.40;97.30;;;;;;5095001;28;20020;-51
2022/07/02 09:25:54;;;;;;;3.25;1.02;;;23.30;95.00;;;;;;5110522;28;20101;-53
2022/07/02 09:28:20;;;;;;;1.67;0.80;;;23.40;96.20;;;;;;5107072;28;20059;-53
2022/07/02 09:30:45;;;;;;;2.63;0.90;;;23.50;96.30;;;;;;5083493;28;20066;-53
2022/07/02 09:33:31;;;;;;;1.33;0.98;;;23.50;95.40;;;;;;5110273;28;20024;-56
2022/07/02 09:36:07;;;;;;;1.60;0.77;;;23.70;97.00;;;;;;5102354;28;20387;-52
2022/07/02 09:38:41;;;;;;;1.00;0.80;;;23.80;94.20;;;;;;5106738;28;20730;-48
2022/07/02 09:41:14;;;;;;;1.10;0.65;;;23.80;95.40;;;;;;5101188;28;20027;-51
2022/07/02 09:43:41;;;;;;;2.97;1.00;;;23.70;94.90;;;;;;5102963;28;20024;-50
2022/07/02 09:46:17;;;;;;;3.28;1.23;;;23.70;95.30;;;;;;5103942;28;20020;-53
2022/07/02 09:48:43;;;;;;;2.50;0.70;;;23.70;94.40;;;;;;5102733;28;20016;-56
2022/07/02 09:51:09;;;;;;;4.43;1.45;;;23.60;94.40;;;;;;5110487;28;20037;-52
2022/07/02 09:53:45;;;;;;;4.43;1.40;;;23.60;93.50;;;;;;5084986;28;20024;-53
2022/07/02 09:56:11;;;;;;;3.17;0.90;;;23.60;93.70;;;;;;5110797;28;20015;-56
2022/07/02 09:58:36;;;;;;;1.05;0.93;;;23.60;93.10;;;;;;5094738;28;20104;-57
2022/07/02 10:01:03;;;;;;;0.80;0.80;;;23.50;93.70;;;;;;5105470;28;20023;-53
2022/07/02 10:03:29;;;;;;;2.88;0.98;;;23.50;94.90;;;;;;5091249;28;20420;-57
2022/07/02 10:05:56;;;;;;;1.65;0.82;;;23.60;95.00;;;;;;5100082;28;20036;-52
2022/07/02 10:08:22;;;;;;;2.95;0.80;;;23.70;94.00;;;;;;5095787;28;20073;-53
2022/07/02 10:10:48;;;;;;;0.95;0.70;;;23.80;93.90;;;;;;5107311;28;20042;-50
2022/07/02 10:13:15;;;;;;;1.75;0.80;;;23.70;92.00;;;;;;5096922;28;20031;-53
2022/07/02 10:15:52;;;;;;;2.78;1.05;;;23.60;93.20;;;;;;5110344;28;20039;-54
2022/07/02 10:18:19;;;;;;;2.70;0.88;;;23.50;91.00;;;;;;5096031;28;20505;-56
2022/07/02 10:20:44;;;;;;;3.65;0.93;;;23.60;93.40;;;;;;5109271;28;20122;-55
2022/07/02 10:23:12;;;;;;;2.25;0.77;;;23.70;94.10;;;;;;5097032;28;20174;-53
2022/07/02 10:25:39;;;;;;;1.17;0.70;;;23.90;93.80;;;;;;5088360;28;20363;-52
2022/07/02 10:28:05;;;;;;;1.88;0.95;;;23.90;92.70;;;;;;5098180;28;20031;-49
2022/07/02 10:30:34;;;;;;;3.90;1.27;;;23.60;92.80;;;;;;5103743;28;20032;-53
2022/07/02 10:33:22;;;;;;;3.90;2.60;;;23.20;91.70;;;;;;5096132;28;20027;-51
2022/07/02 10:35:49;;;;;;;8.90;3.58;;;22.80;93.30;;;;;;5093855;28;20110;-51
2022/07/02 10:38:15;;;;;;;7.90;3.30;;;22.70;92.10;;;;;;5093982;28;20576;-51
2022/07/02 10:40:50;;;;;;;7.22;3.67;;;22.50;91.40;;;;;;5092319;28;20102;-52
2022/07/02 10:43:20;;;;;;;8.35;2.47;;;22.40;94.40;;;;;;5090716;28;20020;-51
2022/07/02 10:45:46;;;;;;;9.23;3.30;;;22.20;93.60;;;;;;5100460;28;20172;-52
2022/07/02 10:48:13;;;;;;;3.28;1.40;;;22.40;94.60;;;;;;5104430;28;20508;-53
2022/07/02 10:50:44;;;;;;;3.17;0.98;;;22.60;95.50;;;;;;5100935;28;20023;-52
2022/07/02 10:53:18;;;;;;;3.95;1.00;;;22.80;96.10;;;;;;5099875;28;20529;-52
2022/07/02 10:55:59;;;;;;;3.90;1.02;;;23.00;93.70;;;;;;5104191;28;20035;-55
2022/07/02 10:58:36;;;;;;;2.38;0.70;;;23.20;93.50;;;;;;5093559;28;20016;-54
2022/07/02 11:01:22;;;;;;;17.50;3.92;;;23.10;91.80;;;;;;5088169;28;20066;-54
2022/07/02 11:03:58;;;;;;;30.08;7.38;;;23.00;92.50;;;;;;5100243;28;20024;-56
2022/07/02 11:06:23;;;;;;;;;;;22.90;92.70;;;;;;5105744;28;20374;-50
2022/07/02 11:09:04;;;;;;;2.65;1.00;;;22.80;94.00;;;;;;5101341;28;19937;-50
2022/07/02 11:11:32;;;;;;;1.60;0.68;;;22.60;92.60;;;;;;5103282;28;20028;-55
2022/07/02 11:13:58;;;;;;;2.45;0.93;;;22.40;92.00;;;;;;5103209;28;20035;-56
2022/07/02 11:16:25;;;;;;;2.85;0.77;;;22.30;92.50;;;;;;5088613;28;20020;-55
2022/07/02 11:18:52;;;;;;;0.63;0.63;;;22.30;92.10;;;;;;5089350;28;20502;-56
2022/07/02 11:21:20;;;;;;;1.85;0.80;;;22.20;93.80;;;;;;5092898;28;20024;-56
2022/07/02 11:23:46;;;;;;;1.50;0.90;;;22.10;93.10;;;;;;5087823;28;20155;-56
2022/07/02 11:26:19;;;;;;;0.77;0.60;;;22.00;94.70;;;;;;5103020;28;20242;-54
2022/07/02 11:28:45;;;;;;;2.03;0.98;;;22.00;92.80;;;;;;5097303;28;20106;-59
2022/07/02 11:31:11;;;;;;;4.38;1.15;;;22.00;92.30;;;;;;5103013;28;20473;-58
2022/07/02 11:33:43;;;;;;;1.63;0.75;;;22.00;93.30;;;;;;5098416;28;20035;-56
2022/07/02 11:36:09;;;;;;;2.53;0.80;;;21.90;93.80;;;;;;5105310;28;20111;-54
2022/07/02 11:38:39;;;;;;;4.35;0.90;;;22.00;92.50;;;;;;5099619;28;20489;-57
2022/07/02 11:41:21;;;;;;;3.35;0.93;;;22.00;93.30;;;;;;5097447;28;20032;-56
2022/07/02 11:43:49;;;;;;;2.63;0.77;;;22.30;92.70;;;;;;5098845;28;20032;-55
2022/07/02 11:46:18;;;;;;;2.30;1.08;;;22.50;93.50;;;;;;5081557;28;20109;-58
2022/07/02 11:48:44;;;;;;;2.60;0.65;;;22.70;91.40;;;;;;5100370;28;20028;-54
2022/07/02 11:51:09;;;;;;;1.33;0.80;;;22.90;86.90;;;;;;5096778;28;20046;-55
2022/07/02 11:53:36;;;;;;;2.60;0.70;;;23.00;90.10;;;;;;5088304;28;20546;-58
2022/07/02 11:56:05;;;;;;;2.38;0.65;;;23.20;92.20;;;;;;5101910;28;20042;-57
2022/07/02 11:58:43;;;;;;;1.65;0.47;;;23.20;89.50;;;;;;5105156;28;20051;-57
2022/07/02 12:01:24;;;;;;;2.45;0.73;;;23.30;90.60;;;;;;5104846;28;20489;-59
2022/07/02 12:03:52;;;;;;;1.73;0.68;;;23.20;90.30;;;;;;5102921;28;20031;-58
2022/07/02 12:06:18;;;;;;;2.85;1.00;;;23.20;90.30;;;;;;5102976;28;20024;-54
2022/07/02 12:08:44;;;;;;;0.93;0.52;;;23.40;90.20;;;;;;5099090;28;20500;-57
2022/07/02 12:11:14;;;;;;;1.25;0.60;;;23.50;90.30;;;;;;5107516;28;20024;-57
2022/07/02 12:13:41;;;;;;;2.17;0.60;;;23.60;90.60;;;;;;5107535;28;20031;-57
2022/07/02 12:16:09;;;;;;;1.63;0.70;;;23.70;91.10;;;;;;5112207;28;20020;-58
2022/07/02 12:18:36;;;;;;;6.00;0.95;;;23.90;89.60;;;;;;5107608;28;20027;-55
2022/07/02 12:21:15;;;;;;;0.77;0.60;;;24.10;90.10;;;;;;5111489;28;20020;-59
2022/07/02 12:23:45;;;;;;;2.97;0.85;;;24.20;90.20;;;;;;5106669;28;20020;-57
2022/07/02 12:26:17;;;;;;;2.13;0.80;;;24.40;90.10;;;;;;5110498;28;20031;-58
2022/07/02 12:31:50;;;;;;;0.75;0.50;;;24.70;86.10;;;;;;5109579;28;20088;-55
2022/07/02 12:34:18;;;;;;;1.67;0.70;;;24.70;81.90;;;;;;5108059;28;20028;-55
2022/07/02 12:37:01;;;;;;;1.58;0.60;;;24.50;85.70;;;;;;5108379;28;20543;-54
2022/07/02 12:39:43;;;;;;;0.90;0.70;;;24.30;84.10;;;;;;5100414;28;20023;-57
2022/07/02 12:42:23;;;;;;;0.80;0.50;;;24.10;84.90;;;;;;5104850;28;20020;-54
2022/07/02 12:44:58;;;;;;;2.05;0.80;;;24.10;85.20;;;;;;5085717;28;20021;-55
2022/07/02 12:47:28;;;;;;;2.03;0.80;;;24.20;86.60;;;;;;5104725;28;20023;-55
2022/07/02 12:50:11;;;;;;;1.02;0.60;;;24.40;88.10;;;;;;5107024;28;20039;-57
2022/07/02 12:52:51;;;;;;;0.77;0.63;;;24.60;85.10;;;;;;5104850;28;20735;-54
2022/07/02 12:55:28;;;;;;;5.68;0.90;;;24.60;85.00;;;;;;5094489;28;20510;-57